Latest Weather Observations for Campania

IDT60801

Issued at 4:05 pm EDT Friday 31 October 2014 (issued every 30 minutes, with the page automatically refreshed every 10 minutes)

About weather observations | Map of weather stations | Latest weather observations for TAS | Other Formats
Station Details ID: 094212 Name: CAMPANIA (KINCORA) Lat: -42.69 Lon: 147.43 Height: 45.0 m
Data from the previous 72 hours. | See also: Recent months at Campania
Date/Time
EDT
Temp
°C
App
Temp
°C
Dew
Point
Rel
Hum
%
Delta-T
°C
Wind Press
QNH
hPa
Press
MSL
hPa
Rain
since 9 am
mm
Dir
 
Spd
km/h
Gust
km/h
Spd
kts
Gust
kts
31/04:00pm 21.7 18.6 11.7 53 5.6 NW 19 39 10 21 - - 0.0
31/03:30pm 21.8 17.7 11.5 52 5.7 WNW 24 37 13 20 - - 0.0
31/03:00pm 21.7 19.3 12.8 57 5.1 WNW 17 28 9 15 - - 0.0
31/02:30pm 20.5 17.1 11.4 56 5.0 WNW 20 32 11 17 - - 0.0
31/02:00pm 20.3 19.2 10.7 54 5.2 N 7 13 4 7 - - 0.0
31/01:30pm 20.0 17.2 11.5 58 4.7 WNW 17 20 9 11 - - 0.0
31/01:00pm 19.3 15.6 10.3 56 4.8 N 20 30 11 16 - - 0.0
31/12:30pm 17.7 14.2 10.3 62 3.9 N 19 26 10 14 - - 0.0
31/12:00pm 17.0 13.1 9.4 61 4.0 N 20 32 11 17 - - 0.0
31/11:30am 16.3 12.0 9.3 63 3.6 N 22 33 12 18 - - 0.0
31/11:00am 16.1 10.9 8.8 62 3.7 N 26 35 14 19 - - 0.0
31/10:30am 15.4 10.2 8.9 65 3.3 N 26 35 14 19 - - 0.0
31/10:00am 14.9 9.7 8.8 67 3.1 N 26 35 14 19 - - 0.0
31/09:30am 13.4 8.8 8.0 70 2.7 N 22 28 12 15 - - 0.0
31/09:00am 13.0 8.3 7.7 70 2.6 N 22 32 12 17 - - 0.8
31/08:30am 13.2 8.5 7.6 69 2.7 N 22 30 12 16 - - 0.8
31/08:00am 13.5 8.4 7.7 68 2.9 N 24 32 13 17 - - 0.8
31/07:30am 12.2 8.0 7.5 73 2.3 N 19 26 10 14 - - 0.8
31/07:00am 11.4 9.4 6.9 74 2.1 NW 7 13 4 7 - - 0.8
31/06:30am 11.0 9.1 7.5 79 1.7 N 7 13 4 7 - - 0.8
31/06:00am 8.5 6.0 6.6 88 0.9 NW 9 11 5 6 - - 0.8
31/05:30am 8.8 6.6 6.2 84 1.2 W 7 9 4 5 - - 0.8
31/05:00am 10.6 7.4 6.9 78 1.8 NE 13 15 7 8 - - 0.8
31/04:30am 10.6 8.5 6.7 77 1.8 NNE 7 11 4 6 - - 0.8
31/04:00am 10.8 8.4 7.1 78 1.8 NNE 9 13 5 7 - - 0.8
31/03:30am 10.8 8.4 6.9 77 1.9 N 9 13 5 7 - - 0.8
31/03:00am 11.2 8.1 7.1 76 2.0 N 13 20 7 11 - - 0.8
31/02:30am 10.3 8.5 7.9 85 1.2 N 7 13 4 7 - - 0.8
31/02:00am 9.1 7.4 7.5 90 0.8 NW 6 9 3 5 - - 0.8
31/01:30am 9.1 8.2 7.7 91 0.7 NNW 2 6 1 3 - - 0.8
31/01:00am 8.7 8.0 7.0 89 0.8 CALM 0 0 0 0 - - 0.8
31/12:30am 10.1 7.1 7.7 85 1.2 NNE 13 15 7 8 - - 0.8
31/12:00am 9.7 7.0 7.3 85 1.1 N 11 13 6 7 - - 0.8
 
Date/Time
EDT
Temp
°C
App
Temp
°C
Dew
Point
Rel
Hum
%
Delta-T
°C
Wind Press
QNH
hPa
Press
MSL
hPa
Rain
since 9 am
mm
Dir
 
Spd
km/h
Gust
km/h
Spd
kts
Gust
kts
30/11:30pm 11.0 8.0 7.9 81 1.5 N 13 17 7 9 - - 0.8
30/11:00pm 11.0 9.5 8.4 84 1.3 N 6 9 3 5 - - 0.8
30/10:30pm 10.5 8.5 8.6 88 0.9 N 9 11 5 6 - - 0.8
30/10:00pm 10.3 8.6 7.4 82 1.4 NNW 6 9 3 5 - - 0.8
30/09:30pm 11.0 8.7 7.3 78 1.8 NNW 9 11 5 6 - - 0.8
30/09:00pm 12.4 10.1 7.5 72 2.4 NW 9 11 5 6 - - 0.8
30/08:30pm 13.3 10.5 7.1 66 3.0 WNW 11 15 6 8 - - 0.8
30/08:00pm 13.5 10.4 7.3 66 3.0 NW 13 17 7 9 - - 0.8
30/07:30pm 13.5 10.8 7.5 67 2.9 NW 11 13 6 7 - - 0.8
30/07:00pm 13.4 9.9 7.4 67 2.9 WNW 15 22 8 12 - - 0.8
30/06:30pm 13.1 9.9 8.4 73 2.3 W 15 24 8 13 - - 0.6
30/06:00pm 14.7 11.1 6.8 59 3.9 WNW 15 26 8 14 - - 0.4
30/05:30pm 15.2 12.0 6.7 57 4.2 W 13 30 7 16 - - 0.4
30/05:00pm 15.4 12.6 6.9 57 4.2 W 11 20 6 11 - - 0.4
30/04:30pm 15.2 10.6 6.7 57 4.2 WSW 20 32 11 17 - - 0.4
30/04:00pm 15.8 10.4 7.8 59 4.0 WSW 26 41 14 22 - - 0.4
30/03:30pm 14.9 9.9 8.2 64 3.4 WSW 24 33 13 18 - - 0.4
30/03:03pm 14.2 8.1 8.4 68 2.9 WSW 30 48 16 26 - - 0.4
30/03:00pm 14.3 8.5 8.0 66 3.1 WSW 28 44 15 24 - - 0.4
30/02:30pm 16.1 11.8 7.8 58 4.2 WSW 20 32 11 17 - - 0.4
30/02:00pm 16.3 13.4 8.0 58 4.2 WSW 13 20 7 11 - - 0.4
30/01:30pm 16.3 14.9 10.8 70 2.9 WNW 9 15 5 8 - - 0.4
30/01:00pm 15.0 11.1 8.5 65 3.3 WSW 19 30 10 16 - - 0.2
30/12:30pm 16.1 13.6 8.1 59 4.0 WSW 11 20 6 11 - - 0.2
30/12:00pm 16.2 14.0 9.2 63 3.6 W 11 15 6 8 - - 0.2
30/11:30am 14.2 11.6 9.4 73 2.5 WSW 13 22 7 12 - - 0.2
30/11:00am 16.0 13.0 7.7 58 4.2 W 13 19 7 10 - - 0.0
30/10:30am 15.8 11.5 7.8 59 4.0 NW 20 32 11 17 - - 0.0
30/10:00am 15.2 10.8 7.5 60 3.8 WNW 20 32 11 17 - - 0.0
30/09:30am 14.9 11.1 7.5 61 3.7 NW 17 24 9 13 - - 0.0
30/09:00am 14.7 11.2 7.3 61 3.6 NW 15 20 8 11 - - 0.0
30/08:30am 14.8 11.4 7.8 63 3.5 NNW 15 20 8 11 - - 0.0
30/08:00am 14.1 10.7 7.6 65 3.2 NW 15 20 8 11 - - 0.0
30/07:30am 13.5 10.1 7.5 67 2.9 NNW 15 22 8 12 - - 0.0
30/07:00am 13.1 10.0 7.3 68 2.8 N 13 17 7 9 - - 0.0
30/06:30am 12.0 10.0 7.3 73 2.3 NNE 7 11 4 6 - - 0.0
30/06:00am 12.3 10.5 7.0 70 2.6 NNE 6 9 3 5 - - 0.0
30/05:30am 12.2 10.1 6.7 69 2.6 N 7 13 4 7 - - 0.0
30/05:00am 12.1 9.6 6.6 69 2.6 NNW 9 13 5 7 - - 0.0
30/04:30am 12.1 9.2 6.6 69 2.6 NW 11 26 6 14 - - 0.0
30/04:00am 9.8 8.5 5.8 76 1.8 N 2 7 1 4 - - 0.0
30/03:30am 10.2 8.5 5.8 74 2.0 N 4 7 2 4 - - 0.0
30/03:00am 11.2 8.6 6.1 71 2.4 NNW 9 13 5 7 - - 0.0
30/02:30am 12.6 9.3 6.4 66 3.0 NW 13 22 7 12 - - 0.0
30/02:00am 13.0 9.3 6.4 64 3.2 WNW 15 24 8 13 - - 0.0
30/01:30am 13.1 9.0 6.2 63 3.3 NW 17 24 9 13 - - 0.0
30/01:00am 12.8 9.5 6.2 64 3.1 N 13 20 7 11 - - 0.0
30/12:30am 12.4 9.5 6.5 67 2.8 N 11 19 6 10 - - 0.0
30/12:00am 13.4 9.8 6.7 64 3.2 N 15 26 8 14 - - 0.0
 
Date/Time
EDT
Temp
°C
App
Temp
°C
Dew
Point
Rel
Hum
%
Delta-T
°C
Wind Press
QNH
hPa
Press
MSL
hPa
Rain
since 9 am
mm
Dir
 
Spd
km/h
Gust
km/h
Spd
kts
Gust
kts
29/11:30pm 13.2 9.2 6.8 65 3.1 N 17 24 9 13 - - 0.0
29/11:00pm 13.2 9.2 6.8 65 3.1 NNW 17 30 9 16 - - 0.0
29/10:30pm 13.7 9.4 7.0 64 3.3 NW 19 35 10 19 - - 0.0
29/10:00pm 13.9 9.4 7.0 63 3.4 NW 20 30 11 16 - - 0.0
29/09:30pm 13.8 9.2 6.7 62 3.4 NW 20 32 11 17 - - 0.0
29/09:00pm 14.2 8.4 6.3 59 3.8 NW 26 44 14 24 - - 0.0
29/08:30pm 14.5 6.6 6.1 57 4.0 WNW 37 57 20 31 - - 0.0
29/08:00pm 15.0 8.9 6.8 58 4.0 NW 28 48 15 26 - - 0.0
29/07:51pm 15.0 9.0 7.1 59 3.9 WNW 28 46 15 25 - - 0.0
29/07:30pm 15.4 8.9 6.7 56 4.3 WNW 30 44 16 24 - - 0.0
29/07:01pm 16.0 9.1 6.4 53 4.7 WNW 32 50 17 27 - - 0.0
29/07:00pm 16.0 8.9 6.4 53 4.7 WNW 33 50 18 27 - - 0.0
29/06:30pm 16.3 8.0 6.2 51 4.9 WNW 39 57 21 31 - - 0.0
29/06:00pm 17.0 9.5 6.2 49 5.3 WNW 35 56 19 30 - - 0.0
29/05:30pm 17.7 10.8 6.3 47 5.6 WNW 32 59 17 32 - - 0.0
29/05:01pm 18.1 11.1 6.0 45 5.9 WNW 32 50 17 27 - - 0.0
29/05:00pm 18.0 10.8 5.9 45 5.9 WNW 33 50 18 27 - - 0.0
29/04:30pm 18.2 9.5 6.1 45 6.0 WNW 41 63 22 34 - - 0.0
29/04:00pm 18.3 9.3 6.2 45 6.0 WNW 43 69 23 37 - - 0.0
29/03:44pm 18.6 9.7 6.8 46 5.9 W 43 72 23 39 - - 0.0
29/03:34pm 18.6 9.4 6.4 45 6.1 NW 44 67 24 36 - - 0.0
29/03:30pm 18.4 9.2 6.3 45 6.0 NW 44 61 24 33 - - 0.0
29/03:00pm 18.2 9.6 6.4 46 5.9 WNW 41 65 22 35 - - 0.0
29/02:30pm 18.8 10.5 7.6 48 5.7 WNW 41 59 22 32 - - 0.0
29/02:00pm 18.3 9.8 6.8 47 5.8 NW 41 65 22 35 - - 0.0
29/01:30pm 17.5 11.0 6.4 48 5.5 NW 30 48 16 26 - - 0.0
29/01:00pm 15.8 7.5 6.0 52 4.7 NW 39 61 21 33 - - 0.0
29/12:30pm 15.5 8.0 6.2 54 4.5 NW 35 59 19 32 - - 0.0
29/12:11pm 15.3 9.2 6.8 57 4.2 NW 28 54 15 29 - - 0.0
29/12:00pm 15.4 9.7 6.9 57 4.2 NW 26 39 14 21 - - 0.0
29/11:30am 14.9 7.8 6.5 57 4.1 NW 33 56 18 30 - - 0.0
29/11:13am 14.5 8.3 6.1 57 4.0 NW 28 48 15 26 - - 0.0
29/11:00am 14.7 9.3 6.3 57 4.1 NW 24 46 13 25 - - 0.0
29/10:30am 14.1 9.5 6.5 60 3.7 NW 20 33 11 18 - - 0.0
29/10:00am 12.7 7.5 5.4 61 3.4 NW 22 35 12 19 - - 0.0
29/09:30am 12.4 8.2 5.6 63 3.2 WNW 17 28 9 15 - - 0.0
29/09:00am 11.9 7.9 5.1 63 3.1 NW 15 28 8 15 - - 3.2
29/08:30am 10.9 6.8 4.1 63 3.0 NW 15 22 8 12 - - 3.2
29/08:00am 9.0 5.6 4.0 71 2.2 NNE 11 17 6 9 - - 3.2
29/07:30am 9.0 5.1 3.4 68 2.4 N 13 19 7 10 - - 3.2
29/07:00am 10.0 5.6 2.6 60 3.2 NW 15 20 8 11 - - 3.2
29/06:30am 9.6 4.8 2.5 61 3.0 NNW 17 28 9 15 - - 3.2
29/06:00am 9.3 5.3 2.6 63 2.8 N 13 22 7 12 - - 3.2
29/05:30am 9.0 4.8 1.7 60 3.0 NNW 13 20 7 11 - - 3.2
29/05:00am 8.7 3.4 1.6 61 2.9 NNW 19 32 10 17 - - 3.2
29/04:30am 8.6 4.0 1.7 62 2.9 NNE 15 24 8 13 - - 3.2
29/04:00am 8.6 3.7 2.0 63 2.7 N 17 26 9 14 - - 3.2
29/03:30am 8.7 3.6 0.9 58 3.2 NW 17 35 9 19 - - 3.2
29/03:00am 9.0 2.8 -0.1 53 3.6 W 22 43 12 23 - - 3.2
29/02:30am 8.8 2.9 -0.5 52 3.7 W 20 33 11 18 - - 3.2
29/02:00am 8.7 2.6 0.2 55 3.4 W 22 37 12 20 - - 3.2
29/01:41am 9.0 1.3 0.2 54 3.5 W 30 54 16 29 - - 3.2
29/01:30am 8.9 2.4 0.1 54 3.5 W 24 39 13 21 - - 3.2
29/01:00am 9.0 2.3 -1.4 48 4.0 W 24 37 13 20 - - 3.2
29/12:30am 9.2 0.7 -1.5 47 4.1 W 33 54 18 29 - - 3.2
29/12:00am 9.3 0.1 -1.1 48 4.0 W 37 59 20 32 - - 3.2
 
Date/Time
EDT
Temp
°C
App
Temp
°C
Dew
Point
Rel
Hum
%
Delta-T
°C
Wind Press
QNH
hPa
Press
MSL
hPa
Rain
since 9 am
mm
Dir
 
Spd
km/h
Gust
km/h
Spd
kts
Gust
kts
28/11:37pm 9.1 0.9 -1.0 49 3.9 W 32 54 17 29 - - 3.2
28/11:30pm 9.4 1.2 -1.3 47 4.1 W 32 48 17 26 - - 3.2
28/11:00pm 9.3 1.6 0.0 52 3.7 WNW 30 43 16 23 - - 3.2
28/10:50pm 9.4 2.1 0.1 52 3.7 W 28 50 15 27 - - 3.2
28/10:30pm 9.1 3.4 0.8 56 3.4 WNW 20 30 11 16 - - 3.2
28/10:05pm 9.5 2.1 -0.4 50 3.9 W 28 46 15 25 - - 3.2
28/10:00pm 9.6 2.9 -0.9 48 4.1 W 24 44 13 24 - - 3.2
28/09:30pm 9.3 1.2 -0.6 50 3.9 W 32 54 17 29 - - 3.2
28/09:24pm 9.5 2.1 -0.4 50 3.9 W 28 50 15 27 - - 3.2
28/09:00pm 9.1 2.7 0.8 56 3.4 W 24 44 13 24 - - 3.2
28/08:30pm 9.0 2.0 1.7 60 3.0 WNW 28 43 15 23 - - 3.2
28/08:00pm 9.1 1.6 1.3 58 3.2 WNW 30 52 16 28 - - 3.2
28/07:30pm 9.1 1.2 0.8 56 3.4 WNW 32 54 17 29 - - 3.2
28/07:00pm 9.0 2.0 1.7 60 3.0 W 28 52 15 28 - - 3.2
28/06:30pm 9.9 2.0 1.3 55 3.6 W 32 57 17 31 - - 3.2
28/06:00pm 10.1 1.6 1.0 53 3.8 W 35 54 19 29 - - 3.2
28/05:30pm 10.0 1.6 1.4 55 3.6 W 35 63 19 34 - - 3.2
28/05:10pm 9.8 -0.6 2.2 59 3.2 W 46 80 25 43 - - 3.2
28/05:07pm 9.7 0.5 1.4 56 3.4 WNW 39 69 21 37 - - 3.2
28/05:00pm 10.8 3.0 1.9 54 3.8 W 32 50 17 27 - - 3.2
28/04:41pm 10.5 0.3 0.8 51 4.0 W 44 80 24 43 - - 3.2
28/04:30pm 10.8 2.5 1.9 54 3.8 W 35 59 19 32 - - 3.2

Other Formats:

Comma delimited format used in spreadsheet applications
http://www.bom.gov.au/fwo/IDT60801/IDT60801.95972.axf

JavaScript Object Notation format (JSON) in row-major order
http://www.bom.gov.au/fwo/IDT60801/IDT60801.95972.json